TimeCST,TemperatureF,Dew PointF,Humidity,Sea Level PressureIn,VisibilityMPH,Wind Direction,Wind SpeedMPH,Gust SpeedMPH,PrecipitationIn,Events,Conditions,WindDirDegrees,DateUTC
12:04 AM,26.6,15.8,64,29.90,10.0,WSW,10.4,-,N/A,,Overcast,240,2012-11-12 06:04:00
12:56 AM,24.1,15.1,69,29.94,10.0,West,17.3,24.2,N/A,,Overcast,260,2012-11-12 06:56:00
1:56 AM,23.0,12.9,65,29.96,10.0,WSW,12.7,24.2,N/A,,Overcast,250,2012-11-12 07:56:00
2:56 AM,21.9,12.0,66,29.96,10.0,WSW,16.1,23.0,N/A,,Overcast,240,2012-11-12 08:56:00
3:27 AM,21.2,10.4,63,29.93,10.0,WSW,13.8,23.0,N/A,,Overcast,240,2012-11-12 09:27:00
3:56 AM,21.9,10.9,63,29.97,9.0,WSW,16.1,21.9,0.00,,Overcast,250,2012-11-12 09:56:00
4:56 AM,21.9,12.0,66,29.97,10.0,WSW,12.7,16.1,N/A,,Overcast,240,2012-11-12 10:56:00
5:16 AM,21.2,14.0,74,29.93,7.0,SW,11.5,-,0.00,Snow,Light Snow,230,2012-11-12 11:16:00
5:39 AM,21.2,12.2,68,29.93,9.0,WSW,16.1,21.9,0.00,,Overcast,240,2012-11-12 11:39:00
5:56 AM,21.0,10.9,65,29.97,10.0,SW,15.0,21.9,0.00,,Overcast,230,2012-11-12 11:56:00
6:30 AM,19.4,10.4,68,29.94,10.0,WSW,11.5,-,N/A,,Overcast,240,2012-11-12 12:30:00
6:56 AM,21.0,10.9,65,29.99,10.0,SW,11.5,-,N/A,,Overcast,230,2012-11-12 12:56:00
7:13 AM,19.4,12.2,74,29.95,9.0,WSW,9.2,-,0.00,Snow,Light Snow,240,2012-11-12 13:13:00
7:51 AM,19.4,12.2,74,29.96,10.0,SW,11.5,18.4,0.00,,Overcast,230,2012-11-12 13:51:00
7:56 AM,21.0,12.9,71,30.01,10.0,SW,9.2,18.4,0.00,,Overcast,230,2012-11-12 13:56:00
8:45 AM,21.2,14.0,74,29.97,5.0,WSW,15.0,21.9,0.00,Snow,Light Snow,240,2012-11-12 14:45:00
8:56 AM,21.9,14.0,72,30.01,9.0,WSW,11.5,-,0.00,,Overcast,250,2012-11-12 14:56:00
9:10 AM,21.2,14.0,74,29.96,10.0,SW,15.0,23.0,N/A,,Overcast,230,2012-11-12 15:10:00
9:36 AM,23.0,14.0,68,29.96,10.0,WSW,13.8,21.9,N/A,,Overcast,240,2012-11-12 15:36:00
9:49 AM,23.0,15.8,74,29.96,8.0,WSW,13.8,21.9,N/A,,Overcast,240,2012-11-12 15:49:00
9:56 AM,23.0,15.1,72,30.01,6.0,WSW,15.0,-,0.00,Snow,Light Snow,240,2012-11-12 15:56:00
10:10 AM,24.8,15.8,69,29.97,9.0,WSW,10.4,18.4,0.00,,Overcast,240,2012-11-12 16:10:00
10:56 AM,25.0,17.1,72,30.01,7.0,SW,11.5,-,0.00,Snow,Light Snow,230,2012-11-12 16:56:00
11:28 AM,24.8,17.6,74,29.97,1.8,WSW,17.3,24.2,0.00,Snow,Light Snow,250,2012-11-12 17:28:00
11:40 AM,26.6,17.6,69,29.96,3.0,West,15.0,21.9,0.00,Snow,Light Snow,260,2012-11-12 17:40:00
11:56 AM,25.0,16.0,69,30.01,9.0,West,13.8,26.5,0.00,Snow,Light Snow,260,2012-11-12 17:56:00
12:28 PM,26.6,15.8,64,29.97,6.0,West,16.1,24.2,0.00,Snow,Light Snow,260,2012-11-12 18:28:00
12:56 PM,26.1,12.9,58,30.02,10.0,West,17.3,23.0,0.00,,Overcast,260,2012-11-12 18:56:00
1:56 PM,26.1,14.0,60,30.04,7.0,West,16.1,27.6,0.00,Snow,Light Snow,270,2012-11-12 19:56:00
2:56 PM,26.1,12.9,58,30.06,10.0,West,15.0,26.5,0.00,,Overcast,280,2012-11-12 20:56:00
3:56 PM,26.1,12.9,58,30.10,10.0,West,13.8,-,N/A,,Overcast,270,2012-11-12 21:56:00
4:56 PM,25.0,15.1,66,30.13,10.0,West,10.4,-,0.00,,Overcast,260,2012-11-12 22:56:00
5:56 PM,24.1,16.0,71,30.17,10.0,West,12.7,-,N/A,,Overcast,260,2012-11-12 23:56:00
6:56 PM,24.1,16.0,71,30.19,10.0,WSW,11.5,-,0.00,,Mostly Cloudy,250,2012-11-13 00:56:00
7:56 PM,25.0,14.0,63,30.22,10.0,West,12.7,23.0,N/A,,Overcast,280,2012-11-13 01:56:00
8:44 PM,24.8,14.0,64,30.20,10.0,West,13.8,-,N/A,,Overcast,280,2012-11-13 02:44:00
8:56 PM,24.1,14.0,65,30.25,10.0,West,13.8,20.7,N/A,,Overcast,280,2012-11-13 02:56:00
9:56 PM,24.1,14.0,65,30.27,10.0,West,8.1,-,N/A,,Overcast,280,2012-11-13 03:56:00
10:56 PM,24.1,14.0,65,30.29,10.0,WNW,11.5,-,N/A,,Overcast,290,2012-11-13 04:56:00
11:56 PM,23.0,14.0,68,30.31,10.0,West,10.4,-,N/A,,Overcast,280,2012-11-13 05:56:00